createdAt,value
2018-12-27T00:01:28.901Z,910.80
2018-12-27T00:02:28.895Z,910.84
2018-12-27T00:03:28.855Z,910.81
2018-12-27T00:04:28.840Z,910.79
2018-12-27T00:05:28.761Z,910.81
2018-12-27T00:06:28.749Z,910.84
2018-12-27T00:07:28.920Z,910.86
2018-12-27T00:08:28.694Z,910.93
2018-12-27T00:09:28.661Z,911.00
2018-12-27T00:10:28.799Z,911.07
2018-12-27T00:11:28.604Z,911.11
2018-12-27T00:12:28.553Z,911.17
2018-12-27T00:13:28.604Z,911.19
2018-12-27T00:14:28.520Z,911.16
2018-12-27T00:15:28.457Z,911.17
2018-12-27T00:16:28.653Z,911.15
2018-12-27T00:17:28.421Z,911.16
2018-12-27T00:18:28.400Z,911.20
2018-12-27T00:19:28.374Z,911.19
2018-12-27T00:20:28.331Z,911.18
2018-12-27T00:21:28.279Z,911.20
2018-12-27T00:22:28.238Z,911.24
2018-12-27T00:23:28.194Z,911.26
2018-12-27T00:24:28.178Z,911.23
2018-12-27T00:25:29.422Z,911.23
2018-12-27T00:26:28.106Z,911.28
2018-12-27T00:29:28.025Z,911.30
2018-12-27T00:30:27.981Z,911.31
2018-12-27T00:31:28.143Z,911.31
2018-12-27T00:32:27.900Z,911.36
2018-12-27T00:33:27.905Z,911.36
2018-12-27T00:34:27.851Z,911.39
2018-12-27T00:35:27.865Z,911.39
2018-12-27T00:36:28.298Z,911.40
2018-12-27T00:37:27.775Z,911.40
2018-12-27T00:38:27.822Z,911.45
2018-12-27T00:39:27.682Z,911.39
2018-12-27T00:40:27.710Z,911.38
2018-12-27T00:41:27.652Z,911.37
2018-12-27T00:42:27.584Z,911.35
2018-12-27T00:43:27.582Z,911.40
2018-12-27T00:44:27.562Z,911.46
2018-12-27T00:45:27.556Z,911.50
2018-12-27T00:46:27.498Z,911.53
2018-12-27T00:47:27.671Z,911.50
2018-12-27T00:48:27.405Z,911.57
2018-12-27T00:49:27.371Z,911.58
2018-12-27T00:50:27.366Z,911.67
2018-12-27T00:51:27.313Z,911.74
2018-12-27T00:52:27.298Z,911.78
2018-12-27T00:53:27.838Z,911.85
2018-12-27T00:54:27.197Z,911.82
2018-12-27T00:55:27.203Z,911.83
2018-12-27T00:56:27.182Z,911.88
2018-12-27T00:57:27.445Z,911.88
2018-12-27T00:58:27.112Z,911.84
2018-12-27T00:59:27.247Z,911.88
2018-12-27T01:00:27.063Z,911.90
2018-12-27T01:01:27.002Z,911.89
2018-12-27T01:02:26.975Z,911.89
2018-12-27T01:03:26.909Z,911.90
2018-12-27T01:04:26.907Z,911.89
2018-12-27T01:05:26.951Z,911.92
2018-12-27T01:06:26.823Z,911.92
2018-12-27T01:07:26.804Z,911.88
2018-12-27T01:08:26.775Z,911.89
2018-12-27T01:09:26.738Z,911.91
2018-12-27T01:10:26.694Z,911.90
2018-12-27T01:11:26.683Z,911.84
2018-12-27T01:12:26.661Z,911.91
2018-12-27T01:13:26.637Z,911.84
2018-12-27T01:14:26.574Z,911.86
2018-12-27T01:15:26.694Z,911.87
2018-12-27T01:16:26.524Z,911.86
2018-12-27T01:17:26.486Z,911.85
2018-12-27T01:18:26.445Z,911.86
2018-12-27T01:19:26.469Z,911.88
2018-12-27T01:20:26.383Z,911.88
2018-12-27T01:21:26.878Z,911.85
2018-12-27T01:22:26.331Z,911.87
2018-12-27T01:23:26.340Z,911.84
2018-12-27T01:24:26.261Z,911.81
2018-12-27T01:25:26.211Z,911.80
2018-12-27T01:26:26.182Z,911.82
2018-12-27T01:27:26.288Z,911.82
2018-12-27T01:28:26.134Z,911.84
2018-12-27T01:29:26.114Z,911.83
2018-12-27T01:30:26.070Z,911.86
2018-12-27T01:31:26.036Z,911.88
2018-12-27T01:32:26.015Z,911.90
2018-12-27T01:33:26.135Z,911.84
2018-12-27T01:34:25.943Z,911.87
2018-12-27T01:35:25.892Z,911.82
2018-12-27T01:36:25.883Z,911.84
2018-12-27T01:37:25.857Z,911.81
2018-12-27T01:38:25.805Z,911.82
2018-12-27T01:39:25.754Z,911.79
2018-12-27T01:40:25.755Z,911.82
2018-12-27T01:41:25.731Z,911.82
2018-12-27T01:42:25.692Z,911.79
2018-12-27T01:43:25.849Z,911.78
2018-12-27T01:44:25.620Z,911.75
2018-12-27T01:45:25.596Z,911.70
2018-12-27T01:46:25.556Z,911.72
2018-12-27T01:47:25.591Z,911.68
2018-12-27T01:48:25.669Z,911.66
2018-12-27T01:49:25.441Z,911.66
2018-12-27T01:50:25.418Z,911.68
2018-12-27T01:51:25.400Z,911.67
2018-12-27T01:52:25.378Z,911.67
2018-12-27T01:53:25.316Z,911.71
2018-12-27T01:54:25.444Z,911.70
2018-12-27T01:55:25.371Z,911.72
2018-12-27T01:56:25.319Z,911.72
2018-12-27T01:57:25.209Z,911.72
2018-12-27T01:58:25.234Z,911.71
2018-12-27T01:59:25.142Z,911.67
2018-12-27T02:00:25.104Z,911.68
2018-12-27T02:01:25.224Z,911.64
2018-12-27T02:02:25.045Z,911.63
2018-12-27T02:03:26.529Z,911.62
2018-12-27T02:04:24.978Z,911.58
2018-12-27T02:05:24.953Z,911.52
2018-12-27T02:06:24.911Z,911.48
2018-12-27T02:07:24.883Z,911.47
2018-12-27T02:08:24.838Z,911.45
2018-12-27T02:09:24.808Z,911.47
2018-12-27T02:10:24.791Z,911.49
2018-12-27T02:11:24.747Z,911.50
2018-12-27T02:12:24.740Z,911.51
2018-12-27T02:13:24.692Z,911.49
2018-12-27T02:14:24.660Z,911.49
2018-12-27T02:15:24.609Z,911.52
2018-12-27T02:16:24.656Z,911.46
2018-12-27T02:17:24.551Z,911.51
2018-12-27T02:18:24.523Z,911.51
2018-12-27T02:19:24.484Z,911.50
2018-12-27T02:20:24.605Z,911.52
2018-12-27T02:21:24.430Z,911.52
2018-12-27T02:22:24.415Z,911.53
2018-12-27T02:23:24.396Z,911.53
2018-12-27T02:24:24.340Z,911.54
2018-12-27T02:25:24.319Z,911.58
2018-12-27T02:26:24.274Z,911.48
2018-12-27T02:27:24.252Z,911.50
2018-12-27T02:28:24.209Z,911.45
2018-12-27T02:29:24.177Z,911.45
2018-12-27T02:30:24.140Z,911.37
2018-12-27T02:31:24.109Z,911.35
2018-12-27T02:32:24.088Z,911.31
2018-12-27T02:33:24.060Z,911.32
2018-12-27T02:34:24.029Z,911.27
2018-12-27T02:35:24.057Z,911.29
2018-12-27T02:36:23.936Z,911.30
2018-12-27T02:37:23.941Z,911.30
2018-12-27T02:38:23.862Z,911.28
2018-12-27T02:39:24.014Z,911.30
2018-12-27T02:41:23.915Z,911.32
2018-12-27T02:42:23.777Z,911.29
2018-12-27T02:43:23.711Z,911.28
2018-12-27T02:44:23.688Z,911.29
2018-12-27T02:45:23.644Z,911.23
2018-12-27T02:46:23.827Z,911.22
2018-12-27T02:47:23.593Z,911.17
2018-12-27T02:48:23.548Z,911.16
2018-12-27T02:49:23.527Z,911.11
2018-12-27T02:50:23.494Z,911.09
2018-12-27T02:51:23.458Z,911.08
2018-12-27T02:52:23.928Z,911.06
2018-12-27T02:53:23.393Z,911.02
2018-12-27T02:54:23.346Z,911.01
2018-12-27T02:55:23.390Z,910.95
2018-12-27T02:56:23.305Z,910.93
2018-12-27T02:57:23.269Z,910.84
2018-12-27T02:58:23.393Z,910.82
2018-12-27T02:59:23.230Z,910.76
2018-12-27T03:00:23.165Z,910.76
2018-12-27T03:01:23.127Z,910.76
2018-12-27T03:02:23.098Z,910.73
2018-12-27T03:03:23.066Z,910.75
2018-12-27T03:05:23.007Z,910.72
2018-12-27T03:06:22.981Z,910.70
2018-12-27T03:07:22.938Z,910.72
2018-12-27T03:08:22.938Z,910.69
2018-12-27T03:09:22.869Z,910.70
2018-12-27T03:10:22.841Z,910.70
2018-12-27T03:11:22.825Z,910.75
2018-12-27T03:12:22.792Z,910.74
2018-12-27T03:13:22.729Z,910.73
2018-12-27T03:14:22.724Z,910.76
2018-12-27T03:15:22.665Z,910.77
2018-12-27T03:16:22.641Z,910.76
2018-12-27T03:17:22.615Z,910.74
2018-12-27T03:18:22.623Z,910.74
2018-12-27T03:19:23.024Z,910.72
2018-12-27T03:20:22.506Z,910.70
2018-12-27T03:21:22.504Z,910.72
2018-12-27T03:22:22.459Z,910.68
2018-12-27T03:23:22.413Z,910.65
2018-12-27T03:24:22.393Z,910.62
2018-12-27T03:25:22.547Z,910.61
2018-12-27T03:26:22.329Z,910.56
2018-12-27T03:27:22.298Z,910.56
2018-12-27T03:28:22.269Z,910.50
2018-12-27T03:29:22.234Z,910.46
2018-12-27T03:30:22.442Z,910.47
2018-12-27T03:31:22.169Z,910.48
2018-12-27T03:32:22.131Z,910.49
2018-12-27T03:33:22.097Z,910.47
2018-12-27T03:34:22.068Z,910.48
2018-12-27T03:35:22.039Z,910.51
2018-12-27T03:36:22.009Z,910.49
2018-12-27T03:37:21.963Z,910.52
2018-12-27T03:38:21.937Z,910.51
2018-12-27T03:39:21.893Z,910.47
2018-12-27T03:40:21.852Z,910.50
2018-12-27T03:41:21.839Z,910.48
2018-12-27T03:42:21.804Z,910.47
2018-12-27T03:43:21.775Z,910.44
2018-12-27T03:44:21.734Z,910.45
2018-12-27T03:45:21.718Z,910.39
2018-12-27T03:46:21.665Z,910.41
2018-12-27T03:47:21.698Z,910.38
2018-12-27T03:48:21.631Z,910.39
2018-12-27T03:49:21.574Z,910.36
2018-12-27T03:50:21.535Z,910.39
2018-12-27T03:51:21.659Z,910.41
2018-12-27T03:52:21.474Z,910.35
2018-12-27T03:53:21.439Z,910.38
2018-12-27T03:54:21.418Z,910.36
2018-12-27T03:55:21.396Z,910.35
2018-12-27T03:56:21.346Z,910.31
2018-12-27T03:57:21.353Z,910.31
2018-12-27T03:58:21.302Z,910.31
2018-12-27T03:59:21.245Z,910.27
2018-12-27T04:00:21.221Z,910.24
2018-12-27T04:01:21.198Z,910.21
2018-12-27T04:02:21.160Z,910.19
2018-12-27T04:03:21.129Z,910.18
2018-12-27T04:04:21.085Z,910.19
2018-12-27T04:05:21.081Z,910.16
2018-12-27T04:06:21.041Z,910.19
2018-12-27T04:07:21.018Z,910.22
2018-12-27T04:08:20.966Z,910.17
2018-12-27T04:09:20.948Z,910.19
2018-12-27T04:10:20.952Z,910.19
2018-12-27T04:11:20.870Z,910.19
2018-12-27T04:12:20.835Z,910.17
2018-12-27T04:13:20.806Z,910.21
2018-12-27T04:14:20.768Z,910.21
2018-12-27T04:15:20.749Z,910.18
2018-12-27T04:16:20.713Z,910.19
2018-12-27T04:17:20.882Z,910.21
2018-12-27T04:18:20.654Z,910.22
2018-12-27T04:19:20.593Z,910.22
2018-12-27T04:20:20.562Z,910.25
2018-12-27T04:21:20.543Z,910.26
2018-12-27T04:22:20.516Z,910.26
2018-12-27T04:23:20.686Z,910.25
2018-12-27T04:24:20.448Z,910.26
2018-12-27T04:25:20.424Z,910.31
2018-12-27T04:26:20.380Z,910.32
2018-12-27T04:27:20.369Z,910.31
2018-12-27T04:28:20.520Z,910.34
2018-12-27T04:29:20.266Z,910.32
2018-12-27T04:30:20.312Z,910.33
2018-12-27T04:31:20.284Z,910.29
2018-12-27T04:32:20.297Z,910.32
2018-12-27T04:33:20.151Z,910.30
2018-12-27T04:34:20.309Z,910.30
2018-12-27T04:35:20.086Z,910.28
2018-12-27T04:36:20.057Z,910.26
2018-12-27T04:37:20.028Z,910.25
2018-12-27T04:38:19.990Z,910.22
2018-12-27T04:39:19.979Z,910.22
2018-12-27T04:40:19.937Z,910.18
2018-12-27T04:41:19.895Z,910.13
2018-12-27T04:42:19.860Z,910.09
2018-12-27T04:43:19.834Z,910.07
2018-12-27T04:44:19.781Z,910.07
2018-12-27T04:45:19.775Z,910.07
2018-12-27T04:46:19.744Z,910.07
2018-12-27T04:47:19.698Z,910.10
2018-12-27T04:48:19.666Z,910.12
2018-12-27T04:49:19.796Z,910.11
2018-12-27T04:50:19.613Z,910.16
2018-12-27T04:51:19.571Z,910.14
2018-12-27T04:52:19.666Z,910.13
2018-12-27T04:53:19.520Z,910.11
2018-12-27T04:54:19.476Z,910.13
2018-12-27T04:55:19.889Z,910.05
2018-12-27T04:56:19.406Z,910.07
2018-12-27T04:57:19.431Z,910.07
2018-12-27T04:58:19.362Z,910.07
2018-12-27T04:59:19.318Z,910.01
2018-12-27T05:00:19.297Z,910.01
2018-12-27T05:01:19.400Z,909.98
2018-12-27T05:02:19.231Z,909.99
2018-12-27T05:03:19.180Z,909.93
2018-12-27T05:04:19.158Z,909.93
2018-12-27T05:05:19.097Z,909.95
2018-12-27T05:06:19.098Z,909.95
2018-12-27T05:07:19.051Z,909.93
2018-12-27T05:08:19.010Z,909.95
2018-12-27T05:09:18.989Z,909.93
2018-12-27T05:10:18.952Z,909.93
2018-12-27T05:11:19.018Z,909.90
2018-12-27T05:12:18.891Z,909.91
2018-12-27T05:13:18.851Z,909.91
2018-12-27T05:14:18.827Z,909.89
2018-12-27T05:15:18.801Z,909.89
2018-12-27T05:16:18.771Z,909.86
2018-12-27T05:17:18.726Z,909.88
2018-12-27T05:18:18.702Z,909.84
2018-12-27T05:19:18.645Z,909.87
2018-12-27T05:20:18.637Z,909.88
2018-12-27T05:21:18.659Z,909.86
2018-12-27T05:22:18.705Z,909.88
2018-12-27T05:23:18.536Z,909.88
2018-12-27T05:24:18.502Z,909.86
2018-12-27T05:25:18.463Z,909.84
2018-12-27T05:26:18.444Z,909.84
2018-12-27T05:27:18.411Z,909.80
2018-12-27T05:28:18.370Z,909.84
2018-12-27T05:29:18.327Z,909.83
2018-12-27T05:30:18.308Z,909.82
2018-12-27T05:31:18.273Z,909.79
2018-12-27T05:32:18.245Z,909.83
2018-12-27T05:33:18.212Z,909.83
2018-12-27T05:34:25.863Z,909.85
2018-12-27T05:35:18.131Z,909.85
2018-12-27T05:36:18.126Z,909.88
2018-12-27T05:37:18.482Z,909.91
2018-12-27T05:38:18.047Z,909.92
2018-12-27T05:39:18.028Z,909.88
2018-12-27T05:40:17.983Z,909.90
2018-12-27T05:41:17.946Z,909.89
2018-12-27T05:42:18.114Z,909.84
2018-12-27T05:43:17.879Z,909.85
2018-12-27T05:44:17.852Z,909.83
2018-12-27T05:45:17.814Z,909.84
2018-12-27T05:46:17.762Z,909.85
2018-12-27T05:47:17.913Z,909.86
2018-12-27T05:48:17.708Z,909.87
2018-12-27T05:49:17.687Z,909.83
2018-12-27T05:50:17.672Z,909.84
2018-12-27T05:51:17.654Z,909.85
2018-12-27T05:52:17.571Z,909.85
2018-12-27T05:53:17.734Z,909.85
2018-12-27T05:54:17.522Z,909.84
2018-12-27T05:55:17.489Z,909.85
2018-12-27T05:56:17.449Z,909.86
2018-12-27T05:57:17.421Z,909.88
2018-12-27T05:58:17.389Z,909.85
2018-12-27T05:59:17.345Z,909.83
2018-12-27T06:00:17.348Z,909.84
2018-12-27T06:01:17.372Z,909.83
2018-12-27T06:02:17.268Z,909.82
2018-12-27T06:03:17.237Z,909.81
2018-12-27T06:04:17.336Z,909.79
2018-12-27T06:05:17.208Z,909.78
2018-12-27T06:06:17.135Z,909.77
2018-12-27T06:07:17.102Z,909.75
2018-12-27T06:08:17.069Z,909.73
2018-12-27T06:09:17.041Z,909.71
2018-12-27T06:10:17.009Z,909.73
2018-12-27T06:11:16.950Z,909.67
2018-12-27T06:12:16.942Z,909.69
2018-12-27T06:13:16.922Z,909.70
2018-12-27T06:14:16.924Z,909.67
2018-12-27T06:15:16.830Z,909.68
2018-12-27T06:16:16.810Z,909.65
2018-12-27T06:17:16.806Z,909.63
2018-12-27T06:18:16.745Z,909.58
2018-12-27T06:19:16.699Z,909.57
2018-12-27T06:20:17.172Z,909.53
2018-12-27T06:21:16.641Z,909.53
2018-12-27T06:22:16.614Z,909.53
2018-12-27T06:23:16.583Z,909.53
2018-12-27T06:24:16.562Z,909.57
2018-12-27T06:25:16.526Z,909.55
2018-12-27T06:26:16.673Z,909.62
2018-12-27T06:27:16.455Z,909.59
2018-12-27T06:28:16.401Z,909.61
2018-12-27T06:29:16.418Z,909.61
2018-12-27T06:30:16.359Z,909.62
2018-12-27T06:31:16.534Z,909.62
2018-12-27T06:32:16.337Z,909.59
2018-12-27T06:33:16.253Z,909.60
2018-12-27T06:34:16.234Z,909.60
2018-12-27T06:35:17.729Z,909.57
2018-12-27T06:36:16.375Z,909.59
2018-12-27T06:37:16.112Z,909.55
2018-12-27T06:38:16.089Z,909.53
2018-12-27T06:39:16.085Z,909.50
2018-12-27T06:40:16.039Z,909.54
2018-12-27T06:41:16.444Z,909.52
2018-12-27T06:42:15.961Z,909.53
2018-12-27T06:43:15.934Z,909.58
2018-12-27T06:44:15.891Z,909.57
2018-12-27T06:45:15.871Z,909.60
2018-12-27T06:46:15.812Z,909.62
2018-12-27T06:47:15.799Z,909.64
2018-12-27T06:48:15.787Z,909.62
2018-12-27T06:49:15.823Z,909.64
2018-12-27T06:50:15.813Z,909.64
2018-12-27T06:51:15.693Z,909.65
2018-12-27T06:52:15.822Z,909.62
2018-12-27T06:53:15.610Z,909.63
2018-12-27T06:54:16.242Z,909.59
2018-12-27T06:55:15.576Z,909.59
2018-12-27T06:56:15.600Z,909.60
2018-12-27T06:57:15.469Z,909.64
2018-12-27T06:58:15.697Z,909.62
2018-12-27T06:59:15.486Z,909.61
2018-12-27T07:00:15.387Z,909.65
2018-12-27T07:01:15.351Z,909.67
2018-12-27T07:02:15.340Z,909.70
2018-12-27T07:03:15.338Z,909.72
2018-12-27T07:04:15.338Z,909.76
2018-12-27T07:05:15.591Z,909.76
2018-12-27T07:06:15.312Z,909.76
2018-12-27T07:07:15.206Z,909.76
2018-12-27T07:08:15.097Z,909.77
2018-12-27T07:09:15.463Z,909.77
2018-12-27T07:10:15.046Z,909.76
2018-12-27T07:11:15.086Z,909.82
2018-12-27T07:12:15.054Z,909.82
2018-12-27T07:13:14.969Z,909.84
2018-12-27T07:14:14.938Z,909.81
2018-12-27T07:15:14.894Z,909.82
2018-12-27T07:16:14.911Z,909.79
2018-12-27T07:17:14.835Z,909.82
2018-12-27T07:18:14.774Z,909.83
2018-12-27T07:19:14.745Z,909.81
2018-12-27T07:20:15.187Z,909.83
2018-12-27T07:21:14.707Z,909.85
2018-12-27T07:22:14.647Z,909.86
2018-12-27T07:23:14.633Z,909.83
2018-12-27T07:24:14.573Z,909.84
2018-12-27T07:25:14.579Z,909.83
2018-12-27T07:26:14.667Z,909.82
2018-12-27T07:27:14.501Z,909.86
2018-12-27T07:28:14.457Z,909.83
2018-12-27T07:29:14.435Z,909.88
2018-12-27T07:30:14.414Z,909.89
2018-12-27T07:31:14.357Z,909.89
2018-12-27T07:33:14.311Z,909.86
2018-12-27T07:34:14.297Z,909.84
2018-12-27T07:35:14.224Z,909.87
2018-12-27T07:36:14.204Z,909.87
2018-12-27T07:37:14.148Z,909.86
2018-12-27T07:38:14.146Z,909.82
2018-12-27T07:39:14.118Z,909.87
2018-12-27T07:40:14.081Z,909.85
2018-12-27T07:41:14.032Z,909.89
2018-12-27T07:42:13.998Z,909.93
2018-12-27T07:43:13.974Z,909.94
2018-12-27T07:44:13.966Z,909.93
2018-12-27T07:45:13.917Z,909.96
2018-12-27T07:47:13.855Z,909.99
2018-12-27T07:48:13.827Z,910.01
2018-12-27T07:49:13.791Z,909.99
2018-12-27T07:50:13.742Z,910.02
2018-12-27T07:51:13.712Z,910.02
2018-12-27T07:52:13.812Z,910.03
2018-12-27T07:53:13.667Z,910.04
2018-12-27T07:54:13.615Z,910.05
2018-12-27T07:55:13.563Z,910.05
2018-12-27T07:56:13.557Z,910.06
2018-12-27T07:57:13.519Z,910.07
2018-12-27T07:58:13.665Z,910.06
2018-12-27T07:59:13.448Z,910.07
2018-12-27T08:00:13.427Z,910.07
2018-12-27T08:01:13.373Z,910.09
2018-12-27T08:02:13.362Z,910.06
2018-12-27T08:03:13.332Z,910.06
2018-12-27T08:04:13.306Z,910.05
2018-12-27T08:05:13.348Z,910.07
2018-12-27T08:06:13.228Z,910.09
2018-12-27T08:07:13.184Z,910.06
2018-12-27T08:08:13.177Z,910.09
2018-12-27T08:09:13.108Z,910.10
2018-12-27T08:10:13.075Z,910.04
2018-12-27T08:11:13.048Z,910.08
2018-12-27T08:12:13.028Z,910.07
2018-12-27T08:13:12.993Z,910.07
2018-12-27T08:14:12.974Z,910.10
2018-12-27T08:15:12.940Z,910.13
2018-12-27T08:16:12.945Z,910.15
2018-12-27T08:17:12.886Z,910.19
2018-12-27T08:18:12.831Z,910.20
2018-12-27T08:19:12.931Z,910.21
2018-12-27T08:20:12.783Z,910.26
2018-12-27T08:21:13.092Z,910.27
2018-12-27T08:22:12.741Z,910.29
2018-12-27T08:23:12.676Z,910.34
2018-12-27T08:24:12.633Z,910.33
2018-12-27T08:25:12.575Z,910.36
2018-12-27T08:26:12.715Z,910.38
2018-12-27T08:27:12.522Z,910.41
2018-12-27T08:28:12.511Z,910.37
2018-12-27T08:29:12.470Z,910.41
2018-12-27T08:30:12.437Z,910.39
2018-12-27T08:32:12.356Z,910.37
2018-12-27T08:33:12.336Z,910.40
2018-12-27T08:34:12.313Z,910.42
2018-12-27T08:35:12.274Z,910.38
2018-12-27T08:37:12.197Z,910.35
2018-12-27T08:38:12.178Z,910.38
2018-12-27T08:39:12.116Z,910.38
2018-12-27T08:40:12.103Z,910.35
2018-12-27T08:41:12.078Z,910.40
2018-12-27T08:42:12.687Z,910.41
2018-12-27T08:43:12.013Z,910.43
2018-12-27T08:44:11.980Z,910.47
2018-12-27T08:45:11.937Z,910.49
2018-12-27T08:46:11.903Z,910.52
2018-12-27T08:47:11.872Z,910.48
2018-12-27T08:48:11.834Z,910.56
2018-12-27T08:49:11.802Z,910.53
2018-12-27T08:50:11.767Z,910.54
2018-12-27T08:51:11.740Z,910.53
2018-12-27T08:52:11.843Z,910.52
2018-12-27T08:53:11.690Z,910.52
2018-12-27T08:54:11.647Z,910.55
2018-12-27T08:55:11.608Z,910.56
2018-12-27T08:56:11.589Z,910.57
2018-12-27T08:57:11.551Z,910.56
2018-12-27T08:58:11.677Z,910.58
2018-12-27T08:59:11.482Z,910.58
2018-12-27T09:00:11.487Z,910.59
2018-12-27T09:01:11.409Z,910.60
2018-12-27T09:02:11.394Z,910.62
2018-12-27T09:03:11.364Z,910.64
2018-12-27T09:04:11.328Z,910.63
2018-12-27T09:05:18.574Z,910.67
2018-12-27T09:06:11.237Z,910.67
2018-12-27T09:07:11.222Z,910.65
2018-12-27T09:08:11.195Z,910.63
2018-12-27T09:09:11.310Z,910.62
2018-12-27T09:10:11.099Z,910.67
2018-12-27T09:11:11.112Z,910.65
2018-12-27T09:12:11.046Z,910.63
2018-12-27T09:13:11.030Z,910.65
2018-12-27T09:14:11.181Z,910.67
2018-12-27T09:15:10.971Z,910.69
2018-12-27T09:16:10.920Z,910.68
2018-12-27T09:17:10.879Z,910.69
2018-12-27T09:18:10.948Z,910.70
2018-12-27T09:19:10.855Z,910.71
2018-12-27T09:20:10.805Z,910.71
2018-12-27T09:21:10.771Z,910.69
2018-12-27T09:22:10.731Z,910.72
2018-12-27T09:23:10.682Z,910.74
2018-12-27T09:24:10.660Z,910.72
2018-12-27T09:25:10.615Z,910.73
2018-12-27T09:26:10.710Z,910.76
2018-12-27T09:27:10.561Z,910.76
2018-12-27T09:28:10.522Z,910.80
2018-12-27T09:29:10.519Z,910.79
2018-12-27T09:30:10.500Z,910.80
2018-12-27T09:31:10.461Z,910.82
2018-12-27T09:32:10.409Z,910.87
2018-12-27T09:33:10.349Z,910.89
2018-12-27T09:34:10.410Z,910.90
2018-12-27T09:35:10.286Z,910.92
2018-12-27T09:36:10.283Z,910.93
2018-12-27T09:37:10.239Z,910.92
2018-12-27T09:38:10.204Z,910.90
2018-12-27T09:39:10.196Z,910.92
2018-12-27T09:40:10.168Z,910.88
2018-12-27T09:41:10.164Z,910.90
2018-12-27T09:42:10.085Z,910.90
2018-12-27T09:43:10.040Z,910.94
2018-12-27T09:44:10.006Z,910.97
2018-12-27T09:45:09.961Z,910.98
2018-12-27T09:46:09.940Z,911.05
2018-12-27T09:47:09.894Z,911.07
2018-12-27T09:48:09.879Z,911.09
2018-12-27T09:49:09.835Z,911.10
2018-12-27T09:50:09.842Z,911.11
2018-12-27T09:51:09.762Z,911.08
2018-12-27T09:52:09.752Z,911.08
2018-12-27T09:53:09.867Z,911.06
2018-12-27T09:54:09.680Z,911.08
2018-12-27T09:55:09.646Z,911.09
2018-12-27T09:56:09.626Z,911.05
2018-12-27T09:57:09.583Z,911.07
2018-12-27T09:58:09.537Z,911.10
2018-12-27T09:59:09.520Z,911.06
2018-12-27T10:00:09.511Z,911.10
2018-12-27T10:01:09.442Z,911.09
2018-12-27T10:02:09.404Z,911.10
2018-12-27T10:03:09.572Z,911.10
2018-12-27T10:04:09.336Z,911.06
2018-12-27T10:05:09.322Z,911.04
2018-12-27T10:06:09.277Z,911.02
2018-12-27T10:07:09.269Z,911.02
2018-12-27T10:08:09.208Z,911.00
2018-12-27T10:09:09.188Z,910.96
2018-12-27T10:10:09.149Z,910.98
2018-12-27T10:11:09.134Z,910.95
2018-12-27T10:12:09.084Z,910.95
2018-12-27T10:13:09.057Z,910.93
2018-12-27T10:14:09.028Z,910.94
2018-12-27T10:15:08.991Z,910.95
2018-12-27T10:16:08.975Z,910.97
2018-12-27T10:17:08.921Z,910.99
2018-12-27T10:18:08.880Z,910.99
2018-12-27T10:19:08.866Z,910.99
2018-12-27T10:20:08.810Z,910.99
2018-12-27T10:21:08.794Z,910.99
2018-12-27T10:22:08.770Z,910.99
2018-12-27T10:23:08.725Z,911.01
2018-12-27T10:24:08.690Z,911.04
2018-12-27T10:25:08.656Z,911.00
2018-12-27T10:26:08.645Z,911.02
2018-12-27T10:27:08.597Z,911.00
2018-12-27T10:28:08.575Z,911.01
2018-12-27T10:29:08.534Z,910.97
2018-12-27T10:30:08.505Z,910.97
2018-12-27T10:31:08.496Z,910.96
2018-12-27T10:32:08.443Z,910.97
2018-12-27T10:33:08.415Z,910.96
2018-12-27T10:34:08.382Z,911.00
2018-12-27T10:35:08.344Z,910.94
2018-12-27T10:36:08.369Z,910.95
2018-12-27T10:37:08.292Z,910.97
2018-12-27T10:38:08.265Z,910.96
2018-12-27T10:39:08.230Z,911.00
2018-12-27T10:40:08.190Z,910.95
2018-12-27T10:41:08.172Z,910.98
2018-12-27T10:42:08.127Z,911.00
2018-12-27T10:43:08.121Z,911.00
2018-12-27T10:44:08.067Z,911.00
2018-12-27T10:45:08.016Z,911.01
2018-12-27T10:46:08.012Z,911.00
2018-12-27T10:47:07.961Z,911.01
2018-12-27T10:48:07.930Z,911.00
2018-12-27T10:49:07.882Z,911.05
2018-12-27T10:50:07.872Z,911.05
2018-12-27T10:51:08.067Z,911.07
2018-12-27T10:52:07.889Z,911.08
2018-12-27T10:53:07.762Z,911.10
2018-12-27T10:54:07.740Z,911.09
2018-12-27T10:55:07.716Z,911.12
2018-12-27T10:56:07.687Z,911.15
2018-12-27T10:57:07.649Z,911.17
2018-12-27T10:58:07.620Z,911.12
2018-12-27T10:59:07.664Z,911.13
2018-12-27T11:00:07.661Z,911.15
2018-12-27T11:01:08.014Z,911.12
2018-12-27T11:02:07.534Z,911.11
2018-12-27T11:03:07.472Z,911.15
2018-12-27T11:04:08.296Z,911.15
2018-12-27T11:05:07.387Z,911.14
2018-12-27T11:06:07.383Z,911.15
2018-12-27T11:07:07.486Z,911.14
2018-12-27T11:08:07.299Z,911.16
2018-12-27T11:09:07.276Z,911.18
2018-12-27T11:10:07.236Z,911.18
2018-12-27T11:11:07.337Z,911.21
2018-12-27T11:12:07.163Z,911.22
2018-12-27T11:13:07.153Z,911.20
2018-12-27T11:14:07.108Z,911.22
2018-12-27T11:15:07.086Z,911.23
2018-12-27T11:16:07.046Z,911.24
2018-12-27T11:17:07.010Z,911.28
2018-12-27T11:18:06.984Z,911.26
2018-12-27T11:19:06.944Z,911.28
2018-12-27T11:20:06.923Z,911.34
2018-12-27T11:21:06.886Z,911.36
2018-12-27T11:22:06.850Z,911.36
2018-12-27T11:23:06.988Z,911.39
2018-12-27T11:24:06.990Z,911.36
2018-12-27T11:25:06.753Z,911.39
2018-12-27T11:26:06.729Z,911.39
2018-12-27T11:27:06.711Z,911.39
2018-12-27T11:28:06.685Z,911.38
2018-12-27T11:29:06.975Z,911.39
2018-12-27T11:30:06.931Z,911.40
2018-12-27T11:31:06.749Z,911.40
2018-12-27T11:32:06.781Z,911.38
2018-12-27T11:33:06.513Z,911.38
2018-12-27T11:34:06.936Z,911.39
2018-12-27T11:35:06.543Z,911.40
2018-12-27T11:36:06.693Z,911.41
2018-12-27T11:37:06.398Z,911.40
2018-12-27T11:38:06.369Z,911.37
2018-12-27T11:39:06.505Z,911.43
2018-12-27T11:40:06.294Z,911.42
2018-12-27T11:41:06.267Z,911.45
2018-12-27T11:42:06.252Z,911.45
2018-12-27T11:43:06.206Z,911.48
2018-12-27T11:46:06.099Z,911.48
2018-12-27T11:47:06.070Z,911.50
2018-12-27T11:48:06.049Z,911.48
2018-12-27T11:49:06.027Z,911.51
2018-12-27T11:50:05.956Z,911.52
2018-12-27T11:51:05.958Z,911.50
2018-12-27T11:52:06.065Z,911.55
2018-12-27T11:53:05.888Z,911.54
2018-12-27T11:54:05.841Z,911.54
2018-12-27T11:55:05.832Z,911.55
2018-12-27T11:56:05.812Z,911.59
2018-12-27T11:57:05.794Z,911.62
2018-12-27T11:59:05.723Z,911.63
2018-12-27T12:00:05.685Z,911.66
2018-12-27T12:01:05.658Z,911.65
2018-12-27T12:02:05.595Z,911.70
2018-12-27T12:03:05.575Z,911.69
2018-12-27T12:04:05.592Z,911.69
2018-12-27T12:05:05.525Z,911.67
2018-12-27T12:06:05.496Z,911.70
2018-12-27T12:07:05.449Z,911.69
2018-12-27T12:08:05.432Z,911.73
2018-12-27T12:09:05.387Z,911.72
2018-12-27T12:10:05.364Z,911.74
2018-12-27T12:11:05.335Z,911.78
2018-12-27T12:12:05.308Z,911.74
2018-12-27T12:13:05.271Z,911.76
2018-12-27T12:14:05.242Z,911.77
2018-12-27T12:15:05.275Z,911.77
2018-12-27T12:16:05.190Z,911.75
2018-12-27T12:17:05.162Z,911.77
2018-12-27T12:18:05.121Z,911.75
2018-12-27T12:19:05.077Z,911.79
2018-12-27T12:20:05.049Z,911.83
2018-12-27T12:21:05.212Z,911.80
2018-12-27T12:22:04.992Z,911.80
2018-12-27T12:23:04.979Z,911.83
2018-12-27T12:24:04.934Z,911.84
2018-12-27T12:25:04.911Z,911.84
2018-12-27T12:26:05.325Z,911.82
2018-12-27T12:27:04.813Z,911.77
2018-12-27T12:28:04.792Z,911.81
2018-12-27T12:29:04.773Z,911.80
2018-12-27T12:30:04.735Z,911.76
2018-12-27T12:31:04.725Z,911.75
2018-12-27T12:32:05.120Z,911.79
2018-12-27T12:33:04.666Z,911.81
2018-12-27T12:34:04.617Z,911.80
2018-12-27T12:35:04.604Z,911.81
2018-12-27T12:36:10.580Z,911.83
2018-12-27T12:37:04.510Z,911.83
2018-12-27T12:38:04.557Z,911.81
2018-12-27T12:39:04.470Z,911.82
2018-12-27T12:40:04.444Z,911.82